createdAt,value
2022-10-02T00:00:24.463Z,63.32
2022-10-02T00:01:28.875Z,63.45
2022-10-02T00:02:33.143Z,63.14
2022-10-02T00:03:37.426Z,63.34
2022-10-02T00:04:41.784Z,63.75
2022-10-02T00:05:45.980Z,63.57
2022-10-02T00:06:50.204Z,63.41
2022-10-02T00:07:54.422Z,63.47
2022-10-02T00:08:58.654Z,63.14
2022-10-02T00:10:02.921Z,63.13
2022-10-02T00:11:07.143Z,63.03
2022-10-02T00:12:11.356Z,63.32
2022-10-02T00:13:15.558Z,63.44
2022-10-02T00:14:19.778Z,63.05
2022-10-02T00:15:23.989Z,63.52
2022-10-02T00:16:28.400Z,63.36
2022-10-02T00:17:32.831Z,63.43
2022-10-02T00:18:37.070Z,63.18
2022-10-02T00:19:41.292Z,63
2022-10-02T00:20:45.499Z,63.21
2022-10-02T00:21:49.735Z,63.56
2022-10-02T00:22:54.001Z,63.14
2022-10-02T00:23:58.203Z,63.8
2022-10-02T00:25:02.404Z,63.41
2022-10-02T00:26:06.619Z,63.98
2022-10-02T00:27:10.835Z,63.9
2022-10-02T00:28:15.349Z,63.5
2022-10-02T00:29:19.629Z,63.81
2022-10-02T00:30:23.842Z,63.38
2022-10-02T00:31:28.275Z,63.55
2022-10-02T00:32:32.531Z,63.57
2022-10-02T00:33:36.857Z,63.49
2022-10-02T00:34:41.070Z,63.47
2022-10-02T00:35:45.291Z,64.12
2022-10-02T00:36:49.490Z,63.75
2022-10-02T00:37:53.728Z,63.71
2022-10-02T00:38:57.940Z,63.65
2022-10-02T00:40:02.166Z,64
2022-10-02T00:41:06.381Z,63.85
2022-10-02T00:42:10.640Z,64.06
2022-10-02T00:43:14.862Z,63.59
2022-10-02T00:44:19.090Z,64.01
2022-10-02T00:45:23.302Z,63.69
2022-10-02T00:46:27.534Z,64.09
2022-10-02T00:47:31.734Z,64.2
2022-10-02T00:48:35.958Z,64.31
2022-10-02T00:49:40.215Z,63.92
2022-10-02T00:50:44.426Z,63.81
2022-10-02T00:51:48.626Z,64.08
2022-10-02T00:52:52.815Z,63.91
2022-10-02T00:53:57.054Z,63.8
2022-10-02T00:55:01.354Z,64.23
2022-10-02T00:56:05.588Z,64.17
2022-10-02T00:57:09.821Z,64.24
2022-10-02T00:58:14.035Z,64.07
2022-10-02T00:59:18.359Z,64.3
2022-10-02T01:00:22.696Z,63.93
2022-10-02T01:01:27.129Z,64.45
2022-10-02T01:02:31.659Z,64.09
2022-10-02T01:03:35.932Z,63.96
2022-10-02T01:04:40.138Z,63.74
2022-10-02T01:05:44.384Z,64.25
2022-10-02T01:06:48.600Z,64.62
2022-10-02T01:07:52.821Z,64.41
2022-10-02T01:08:57.030Z,64.24
2022-10-02T01:10:01.234Z,63.98
2022-10-02T01:11:05.531Z,63.95
2022-10-02T01:12:09.761Z,64.43
2022-10-02T01:13:14.002Z,64.21
2022-10-02T01:14:21.237Z,64.23
2022-10-02T01:15:25.487Z,64.14
2022-10-02T01:16:30.031Z,64.44
2022-10-02T01:17:34.331Z,64.16
2022-10-02T01:18:38.542Z,64.41
2022-10-02T01:19:42.759Z,64.61
2022-10-02T01:20:46.960Z,63.97
2022-10-02T01:21:51.230Z,64.22
2022-10-02T01:22:55.433Z,64.15
2022-10-02T01:23:59.636Z,64.62
2022-10-02T01:25:03.898Z,64.3
2022-10-02T01:26:08.122Z,64.44
2022-10-02T01:27:12.360Z,64.4
2022-10-02T01:28:16.819Z,64.44
2022-10-02T01:29:21.069Z,64.73
2022-10-02T01:30:25.282Z,64.77
2022-10-02T01:31:29.697Z,65.15
2022-10-02T01:32:33.916Z,64.49
2022-10-02T01:33:38.135Z,64.08
2022-10-02T01:34:42.367Z,64.4
2022-10-02T01:35:46.573Z,64.41
2022-10-02T01:36:50.868Z,64.55
2022-10-02T01:37:55.094Z,64.41
2022-10-02T01:38:59.328Z,64.64
2022-10-02T01:40:03.591Z,64.49
2022-10-02T01:41:07.832Z,64.43
2022-10-02T01:42:12.056Z,64.74
2022-10-02T01:43:16.261Z,64.49
2022-10-02T01:44:20.543Z,64.49
2022-10-02T01:45:24.873Z,64.65
2022-10-02T01:46:29.370Z,64.81
2022-10-02T01:47:33.629Z,64.66
2022-10-02T01:48:37.862Z,64.95
2022-10-02T01:49:42.112Z,64.49
2022-10-02T01:50:46.320Z,64.63
2022-10-02T01:51:50.510Z,64.68
2022-10-02T01:52:54.762Z,64.97
2022-10-02T01:53:58.972Z,64.99
2022-10-02T01:55:06.229Z,64.69
2022-10-02T01:56:10.437Z,64.82
2022-10-02T01:57:14.668Z,64.84
2022-10-02T01:58:18.862Z,64.64
2022-10-02T01:59:23.060Z,64.6
2022-10-02T02:00:27.292Z,64.6
2022-10-02T02:01:31.748Z,64.65
2022-10-02T02:02:36.329Z,64.5
2022-10-02T02:03:40.614Z,64.56
2022-10-02T02:04:44.858Z,64.51
2022-10-02T02:05:49.066Z,64.57
2022-10-02T02:06:53.281Z,64.74
2022-10-02T02:07:57.493Z,64.57
2022-10-02T02:09:04.120Z,64.51
2022-10-02T02:10:08.355Z,64.72
2022-10-02T02:11:12.590Z,64.8
2022-10-02T02:12:16.815Z,64.54
2022-10-02T02:13:21.038Z,65.29
2022-10-02T02:14:25.268Z,64.62
2022-10-02T02:15:29.798Z,64.95
2022-10-02T02:16:34.878Z,65.37
2022-10-02T02:17:39.386Z,65.03
2022-10-02T02:18:43.601Z,65.28
2022-10-02T02:19:47.808Z,64.96
2022-10-02T02:20:52.058Z,64.89
2022-10-02T02:21:56.271Z,65
2022-10-02T02:23:00.510Z,65.54
2022-10-02T02:24:04.705Z,65.38
2022-10-02T02:25:08.910Z,65.04
2022-10-02T02:26:13.113Z,65.18
2022-10-02T02:27:17.358Z,65.06
2022-10-02T02:28:21.864Z,64.94
2022-10-02T02:29:26.099Z,65.1
2022-10-02T02:30:30.340Z,64.71
2022-10-02T02:31:34.743Z,65.31
2022-10-02T02:32:38.968Z,64.94
2022-10-02T02:33:43.177Z,65.01
2022-10-02T02:34:47.392Z,65.06
2022-10-02T02:35:51.636Z,64.82
2022-10-02T02:36:55.899Z,65.11
2022-10-02T02:38:00.218Z,64.77
2022-10-02T02:39:04.726Z,65.44
2022-10-02T02:40:08.921Z,64.84
2022-10-02T02:41:13.124Z,65.4
2022-10-02T02:42:25.971Z,64.9
2022-10-02T02:43:30.392Z,65.27
2022-10-02T02:44:34.630Z,65.12
2022-10-02T02:45:39.005Z,64.65
2022-10-02T02:46:45.501Z,64.78
2022-10-02T02:47:49.711Z,64.71
2022-10-02T02:48:53.947Z,64.85
2022-10-02T02:49:58.172Z,65.28
2022-10-02T02:51:02.384Z,65.01
2022-10-02T02:52:06.606Z,65.07
2022-10-02T02:53:10.901Z,64.92
2022-10-02T02:54:15.134Z,65.51
2022-10-02T02:55:19.344Z,65.08
2022-10-02T02:56:23.571Z,64.86
2022-10-02T02:57:27.793Z,64.97
2022-10-02T02:58:32.023Z,65.15
2022-10-02T02:59:36.257Z,64.91
2022-10-02T03:00:40.717Z,64.95
2022-10-02T03:01:45.196Z,65.31
2022-10-02T03:02:51.692Z,65.4
2022-10-02T03:03:55.928Z,65.27
2022-10-02T03:05:00.180Z,65.55
2022-10-02T03:06:04.432Z,64.96
2022-10-02T03:07:08.708Z,64.8
2022-10-02T03:08:12.973Z,65.43
2022-10-02T03:09:17.162Z,64.95
2022-10-02T03:10:21.390Z,65.04
2022-10-02T03:11:25.633Z,65.21
2022-10-02T03:12:29.814Z,64.47
2022-10-02T03:13:34.046Z,65.29
2022-10-02T03:14:38.258Z,64.77
2022-10-02T03:15:42.671Z,64.86
2022-10-02T03:16:46.908Z,65.24
2022-10-02T03:17:51.098Z,65.18
2022-10-02T03:18:55.367Z,64.89
2022-10-02T03:19:59.574Z,65.41
2022-10-02T03:21:03.787Z,64.84
2022-10-02T03:22:07.981Z,65.37
2022-10-02T03:23:12.207Z,64.59
2022-10-02T03:24:16.458Z,65
2022-10-02T03:25:20.685Z,64.8
2022-10-02T03:26:24.900Z,64.37
2022-10-02T03:27:35.955Z,64.7
2022-10-02T03:28:58.187Z,65.16
2022-10-02T03:30:02.470Z,64.6
2022-10-02T03:31:06.985Z,64.87
2022-10-02T03:32:13.469Z,65.03
2022-10-02T03:33:17.661Z,65.7
2022-10-02T03:34:21.900Z,65.24
2022-10-02T03:35:26.117Z,64.83
2022-10-02T03:36:30.304Z,65.03
2022-10-02T03:37:34.512Z,64.72
2022-10-02T03:38:38.718Z,65.55
2022-10-02T03:39:42.979Z,64.97
2022-10-02T03:40:47.214Z,65.08
2022-10-02T03:41:51.406Z,65.56
2022-10-02T03:42:55.631Z,65.03
2022-10-02T03:43:59.891Z,65.12
2022-10-02T03:45:04.227Z,65.15
2022-10-02T03:46:08.587Z,64.81
2022-10-02T03:47:12.814Z,65.37
2022-10-02T03:48:17.019Z,64.91
2022-10-02T03:49:21.258Z,65.4
2022-10-02T03:50:25.470Z,64.87
2022-10-02T03:51:30.595Z,64.61
2022-10-02T03:52:34.882Z,64.81
2022-10-02T03:53:39.086Z,65.24
2022-10-02T03:54:43.307Z,64.81
2022-10-02T03:55:47.514Z,64.86
2022-10-02T03:56:51.734Z,64.64
2022-10-02T03:57:55.939Z,64.78
2022-10-02T03:59:00.131Z,64.73
2022-10-02T04:00:04.380Z,64.72
2022-10-02T04:01:08.592Z,64.65
2022-10-02T04:02:12.853Z,65.09
2022-10-02T04:03:17.232Z,65.05
2022-10-02T04:04:21.494Z,64.98
2022-10-02T04:05:25.733Z,64.85
2022-10-02T04:06:29.972Z,65.21
2022-10-02T04:07:34.185Z,64.7
2022-10-02T04:08:38.404Z,64.87
2022-10-02T04:09:42.611Z,65.19
2022-10-02T04:10:46.871Z,64.84
2022-10-02T04:11:51.069Z,64.83
2022-10-02T04:12:55.301Z,65.32
2022-10-02T04:13:59.497Z,64.96
2022-10-02T04:15:03.722Z,64.84
2022-10-02T04:16:08.266Z,64.67
2022-10-02T04:17:12.513Z,64.97
2022-10-02T04:18:16.770Z,65.07
2022-10-02T04:19:20.975Z,64.99
2022-10-02T04:20:25.221Z,65.37
2022-10-02T04:21:29.433Z,64.67
2022-10-02T04:22:33.658Z,65.05
2022-10-02T04:23:37.868Z,64.87
2022-10-02T04:24:42.090Z,64.84
2022-10-02T04:25:46.311Z,64.75
2022-10-02T04:26:50.505Z,65.1
2022-10-02T04:27:54.902Z,64.41
2022-10-02T04:28:59.161Z,64.75
2022-10-02T04:30:03.365Z,65.05
2022-10-02T04:31:07.817Z,64.54
2022-10-02T04:32:12.190Z,64.56
2022-10-02T04:33:16.419Z,64.74
2022-10-02T04:34:20.671Z,64.55
2022-10-02T04:35:24.890Z,64.54
2022-10-02T04:36:29.103Z,64.44
2022-10-02T04:37:33.315Z,64.56
2022-10-02T04:38:37.579Z,65.07
2022-10-02T04:39:47.789Z,64.83
2022-10-02T04:40:51.980Z,64.75
2022-10-02T04:41:56.196Z,64.65
2022-10-02T04:43:00.679Z,64.98
2022-10-02T04:44:04.915Z,64.78
2022-10-02T04:45:09.166Z,64.86
2022-10-02T04:46:13.608Z,64.6
2022-10-02T04:47:17.901Z,65.08
2022-10-02T04:48:22.111Z,64.69
2022-10-02T04:49:26.321Z,64.72
2022-10-02T04:50:30.530Z,64.8
2022-10-02T04:51:34.775Z,64.75
2022-10-02T04:52:39.010Z,64.57
2022-10-02T04:53:43.226Z,64.77
2022-10-02T04:54:47.448Z,65.01
2022-10-02T04:55:51.668Z,65.04
2022-10-02T04:56:55.885Z,64.88
2022-10-02T04:58:00.138Z,64.89
2022-10-02T04:59:04.362Z,64.84
2022-10-02T05:00:08.598Z,64.58
2022-10-02T05:01:13.100Z,64.78
2022-10-02T05:02:17.962Z,64.8
2022-10-02T05:03:22.233Z,64.76
2022-10-02T05:04:26.465Z,64.88
2022-10-02T05:05:30.714Z,64.62
2022-10-02T05:06:35.744Z,64.68
2022-10-02T05:07:40.099Z,65.02
2022-10-02T05:08:44.363Z,64.67
2022-10-02T05:09:48.597Z,64.61
2022-10-02T05:10:52.854Z,64.64
2022-10-02T05:11:57.064Z,64.63
2022-10-02T05:13:01.300Z,64.75
2022-10-02T05:14:05.509Z,65
2022-10-02T05:15:09.731Z,64.85
2022-10-02T05:16:14.147Z,65
2022-10-02T05:17:18.451Z,65.24
2022-10-02T05:18:22.696Z,64.68
2022-10-02T05:19:26.922Z,64.58
2022-10-02T05:20:31.133Z,64.77
2022-10-02T05:21:35.357Z,64.85
2022-10-02T05:22:39.569Z,64.93
2022-10-02T05:23:43.783Z,65.08
2022-10-02T05:24:48.041Z,64.61
2022-10-02T05:25:52.268Z,65.09
2022-10-02T05:26:56.463Z,64.96
2022-10-02T05:28:00.966Z,64.83
2022-10-02T05:29:05.276Z,64.99
2022-10-02T05:30:09.502Z,64.78
2022-10-02T05:31:13.846Z,65.21
2022-10-02T05:32:18.067Z,64.67
2022-10-02T05:33:22.305Z,65.04
2022-10-02T05:34:26.515Z,64.98
2022-10-02T05:35:30.699Z,64.85
2022-10-02T05:36:35.991Z,64.78
2022-10-02T05:37:40.380Z,64.46
2022-10-02T05:38:44.636Z,64.54
2022-10-02T05:39:48.859Z,64.72
2022-10-02T05:40:53.089Z,64.49
2022-10-02T05:41:57.313Z,64.45
2022-10-02T05:43:01.516Z,64.63
2022-10-02T05:44:05.764Z,64.86
2022-10-02T05:45:09.971Z,64.87
2022-10-02T05:46:14.274Z,64.6
2022-10-02T05:47:18.537Z,65.21
2022-10-02T05:48:22.803Z,64.66
2022-10-02T05:49:27.074Z,64.72
2022-10-02T05:50:31.273Z,64.9
2022-10-02T05:51:35.479Z,64.65
2022-10-02T05:52:39.727Z,64.84
2022-10-02T05:53:43.943Z,64.73
2022-10-02T05:54:48.185Z,64.67
2022-10-02T05:55:52.391Z,64.46
2022-10-02T05:56:56.805Z,64.5
2022-10-02T05:58:01.035Z,64.49
2022-10-02T05:59:05.254Z,64.58
2022-10-02T06:00:09.465Z,64.54
2022-10-02T06:01:13.885Z,64.54
2022-10-02T06:02:18.241Z,64.33
2022-10-02T06:03:22.487Z,64.62
2022-10-02T06:04:26.695Z,65.06
2022-10-02T06:05:30.893Z,64.57
2022-10-02T06:06:35.803Z,65.09
2022-10-02T06:07:40.400Z,64.29
2022-10-02T06:08:44.639Z,64.54
2022-10-02T06:09:48.853Z,64.69
2022-10-02T06:10:53.320Z,64.68
2022-10-02T06:11:57.519Z,64.77
2022-10-02T06:13:01.744Z,64.56
2022-10-02T06:14:05.999Z,64.8
2022-10-02T06:15:10.214Z,64.5
2022-10-02T06:16:14.651Z,64.31
2022-10-02T06:17:18.903Z,63.93
2022-10-02T06:18:23.145Z,64.31
2022-10-02T06:19:27.415Z,64.21
2022-10-02T06:20:31.625Z,64.42
2022-10-02T06:21:35.836Z,64.18
2022-10-02T06:22:41.074Z,64.96
2022-10-02T06:23:45.272Z,64.27
2022-10-02T06:24:49.489Z,64.38
2022-10-02T06:25:53.707Z,64.18
2022-10-02T06:26:57.908Z,64.43
2022-10-02T06:28:02.468Z,64.9
2022-10-02T06:29:06.714Z,64.46
2022-10-02T06:30:10.918Z,64.78
2022-10-02T06:31:15.418Z,64.47
2022-10-02T06:32:19.739Z,64.68
2022-10-02T06:33:23.942Z,64.95
2022-10-02T06:34:28.153Z,65.23
2022-10-02T06:35:32.390Z,64.28
2022-10-02T06:36:37.919Z,64.26
2022-10-02T06:37:42.494Z,64.94
2022-10-02T06:38:46.687Z,64.63
2022-10-02T06:39:50.929Z,64.78
2022-10-02T06:40:55.159Z,64.93
2022-10-02T06:41:59.372Z,64.24
2022-10-02T06:43:03.605Z,64.44
2022-10-02T06:44:07.810Z,64.23
2022-10-02T06:45:12.025Z,64.26
2022-10-02T06:46:16.642Z,65.13
2022-10-02T06:47:20.929Z,64.44
2022-10-02T06:48:25.187Z,64.87
2022-10-02T06:49:29.412Z,65.23
2022-10-02T06:50:33.706Z,64.65
2022-10-02T06:51:37.937Z,64.84
2022-10-02T06:52:42.208Z,64.69
2022-10-02T06:53:46.451Z,64.55
2022-10-02T06:54:50.704Z,64.99
2022-10-02T06:55:54.906Z,64.65
2022-10-02T06:56:59.142Z,64.42
2022-10-02T06:58:03.357Z,64.53
2022-10-02T06:59:07.572Z,64.75
2022-10-02T07:00:11.918Z,64.69
2022-10-02T07:01:16.375Z,64.49
2022-10-02T07:02:20.910Z,64.6
2022-10-02T07:03:25.179Z,64.59
2022-10-02T07:04:29.361Z,64.53
2022-10-02T07:05:33.607Z,65.07
2022-10-02T07:06:38.943Z,64.73
2022-10-02T07:07:43.420Z,64.32
2022-10-02T07:08:47.646Z,64.52
2022-10-02T07:09:51.939Z,63.81
2022-10-02T07:10:56.179Z,64.1
2022-10-02T07:12:00.393Z,64.63
2022-10-02T07:13:04.623Z,65
2022-10-02T07:14:08.837Z,64.87
2022-10-02T07:15:13.085Z,65.06
2022-10-02T07:16:17.446Z,65.4
2022-10-02T07:17:24.320Z,65.29
2022-10-02T07:18:28.563Z,64.56
2022-10-02T07:19:32.790Z,65.09
2022-10-02T07:20:37.015Z,64.55
2022-10-02T07:21:41.259Z,65.53
2022-10-02T07:22:47.598Z,65.01
2022-10-02T07:23:51.868Z,65.49
2022-10-02T07:24:56.121Z,64.95
2022-10-02T07:26:00.327Z,65.47
2022-10-02T07:27:04.544Z,64.47
2022-10-02T07:28:08.999Z,65.07
2022-10-02T07:29:13.336Z,65.73
2022-10-02T07:30:17.562Z,65.07
2022-10-02T07:31:22.009Z,65.28
2022-10-02T07:32:26.307Z,64.74
2022-10-02T07:33:32.125Z,64.8
2022-10-02T07:34:36.361Z,64.57
2022-10-02T07:35:40.608Z,64.47
2022-10-02T07:36:44.803Z,64.16
2022-10-02T07:37:49.034Z,64.2
2022-10-02T07:38:53.270Z,64.21
2022-10-02T07:39:57.504Z,64.37
2022-10-02T07:41:02.237Z,64.64
2022-10-02T07:42:06.427Z,64.59
2022-10-02T07:43:10.620Z,65.06
2022-10-02T07:44:14.841Z,64.29
2022-10-02T07:45:19.048Z,64.54
2022-10-02T07:46:23.261Z,64.66
2022-10-02T07:47:27.465Z,64.98
2022-10-02T07:48:31.723Z,64.71
2022-10-02T07:49:35.945Z,65.07
2022-10-02T07:50:40.172Z,65.06
2022-10-02T07:51:44.396Z,64.78
2022-10-02T07:52:48.620Z,64.99
2022-10-02T07:53:52.841Z,64.5
2022-10-02T07:54:57.047Z,64.55
2022-10-02T07:56:01.256Z,64.43
2022-10-02T07:57:11.566Z,64.94
2022-10-02T07:58:15.759Z,64.47
2022-10-02T07:59:20.998Z,64.51
2022-10-02T08:00:25.262Z,64.6
2022-10-02T08:01:29.503Z,64.63
2022-10-02T08:02:33.964Z,64.84
2022-10-02T08:03:38.439Z,64.62
2022-10-02T08:04:42.657Z,64.69
2022-10-02T08:05:46.867Z,64.75
2022-10-02T08:06:51.113Z,64.54
2022-10-02T08:07:55.352Z,64.26
2022-10-02T08:08:59.609Z,64.67
2022-10-02T08:10:03.857Z,64.31
2022-10-02T08:11:08.342Z,63.84
2022-10-02T08:12:12.595Z,63.73
2022-10-02T08:13:16.891Z,63.95
2022-10-02T08:14:21.100Z,63.96
2022-10-02T08:15:25.334Z,63.7
2022-10-02T08:16:29.716Z,63.5
2022-10-02T08:17:33.942Z,63.6
2022-10-02T08:18:38.215Z,63.08
2022-10-02T08:19:42.441Z,63.03
2022-10-02T08:20:46.658Z,63.19
2022-10-02T08:21:50.872Z,63.41
2022-10-02T08:22:55.081Z,63.26
2022-10-02T08:23:59.291Z,62.89
2022-10-02T08:25:03.513Z,62.92
2022-10-02T08:26:07.755Z,63.39
2022-10-02T08:27:12.059Z,63.43
2022-10-02T08:28:16.509Z,63.08
2022-10-02T08:29:20.760Z,62.96
2022-10-02T08:30:24.993Z,62.97
2022-10-02T08:31:29.465Z,62.75
2022-10-02T08:32:36.845Z,62.86
2022-10-02T08:33:41.285Z,62.95
2022-10-02T08:34:45.525Z,63.58
2022-10-02T08:35:49.723Z,63.47
2022-10-02T08:36:53.947Z,63.24
2022-10-02T08:37:58.154Z,63.29
2022-10-02T08:39:02.390Z,62.98
2022-10-02T08:40:06.610Z,63.59
2022-10-02T08:41:10.831Z,63.15
2022-10-02T08:42:15.173Z,62.84
2022-10-02T08:43:19.628Z,62.84
2022-10-02T08:44:23.849Z,63.11
2022-10-02T08:45:28.302Z,63.17
2022-10-02T08:46:32.532Z,62.71
2022-10-02T08:47:36.758Z,62.53
2022-10-02T08:48:40.985Z,62.81
2022-10-02T08:49:45.210Z,63.29
2022-10-02T08:50:49.471Z,63.28
2022-10-02T08:51:53.650Z,62.8
2022-10-02T08:52:57.861Z,62.62
2022-10-02T08:54:02.120Z,62.48
2022-10-02T08:55:06.337Z,62.46
2022-10-02T08:56:10.595Z,62.95
2022-10-02T08:57:14.802Z,62.93
2022-10-02T08:58:19.057Z,62.84
2022-10-02T08:59:23.299Z,62.69
2022-10-02T09:00:27.517Z,62.89
2022-10-02T09:01:31.726Z,63
2022-10-02T09:02:36.079Z,63.37
2022-10-02T09:03:40.346Z,63.35
2022-10-02T09:04:44.548Z,63.35
2022-10-02T09:05:48.743Z,63.21
2022-10-02T09:16:53.998Z,62.8
2022-10-02T09:17:58.485Z,62.92
2022-10-02T09:19:02.782Z,62.84
2022-10-02T09:20:07.111Z,62.66
2022-10-02T09:21:13.886Z,63.05
2022-10-02T09:22:18.367Z,62.95
2022-10-02T09:23:22.566Z,62.25
2022-10-02T09:24:26.834Z,62.97
2022-10-02T09:25:31.066Z,62.53
2022-10-02T09:26:36.284Z,62.44
2022-10-02T09:27:40.923Z,63.04
2022-10-02T09:28:45.118Z,62.95
2022-10-02T09:29:49.398Z,63.05
2022-10-02T09:30:53.640Z,62.98
2022-10-02T09:31:58.111Z,62.86
2022-10-02T09:33:02.340Z,62.6
2022-10-02T09:34:06.584Z,62.39
2022-10-02T09:35:10.850Z,62.3
2022-10-02T09:36:15.439Z,62.29
2022-10-02T09:37:19.682Z,62.32
2022-10-02T09:38:24.001Z,62.01
2022-10-02T09:39:33.569Z,62.07
2022-10-02T09:40:37.985Z,62.03
2022-10-02T09:41:42.526Z,61.94
2022-10-02T09:42:46.851Z,61.84
2022-10-02T09:43:51.078Z,61.9
2022-10-02T09:45:01.323Z,61.64
2022-10-02T09:46:06.577Z,61.97
2022-10-02T09:47:10.926Z,61.86
2022-10-02T09:48:15.383Z,61.78
2022-10-02T09:49:19.623Z,61.66
2022-10-02T09:50:23.871Z,61.61
2022-10-02T09:51:28.381Z,61.55
2022-10-02T09:52:32.675Z,61.5
2022-10-02T09:53:36.927Z,61.47
2022-10-02T09:54:41.107Z,61.39
2022-10-02T09:55:45.329Z,61.17
2022-10-02T09:56:49.544Z,61.25
2022-10-02T09:57:53.748Z,61.28
2022-10-02T09:58:57.993Z,61.32
2022-10-02T10:00:02.211Z,61.36
2022-10-02T10:01:06.680Z,61.29
2022-10-02T10:02:11.186Z,61.09
2022-10-02T10:03:15.401Z,61.2
2022-10-02T10:04:19.839Z,61.1
2022-10-02T10:05:24.093Z,61.27
2022-10-02T10:06:28.315Z,61.21
2022-10-02T10:07:32.526Z,61.25
2022-10-02T10:08:36.737Z,61.25
2022-10-02T10:09:41.013Z,61.1
2022-10-02T10:10:45.227Z,61.13
2022-10-02T10:11:49.439Z,61.16
2022-10-02T10:12:53.657Z,61.12
2022-10-02T10:13:57.878Z,60.99
2022-10-02T10:15:02.117Z,61.34
2022-10-02T10:16:06.503Z,61.08
2022-10-02T10:17:10.781Z,61.04
2022-10-02T10:18:15.083Z,61.26
2022-10-02T10:19:19.297Z,61.35
2022-10-02T10:20:23.549Z,61.22
2022-10-02T10:21:32.152Z,61.08
2022-10-02T10:22:36.375Z,61.13
2022-10-02T10:23:40.603Z,60.76
2022-10-02T10:24:44.805Z,61.01
2022-10-02T10:25:49.048Z,60.98
2022-10-02T10:26:53.266Z,60.73
2022-10-02T10:27:57.673Z,60.65
2022-10-02T10:29:01.924Z,60.75
2022-10-02T10:30:07.163Z,60.7
2022-10-02T10:31:11.727Z,60.63
2022-10-02T10:32:15.942Z,60.76
2022-10-02T10:33:20.148Z,60.69
2022-10-02T10:34:24.375Z,60.99
2022-10-02T10:35:28.595Z,60.83
2022-10-02T10:36:32.805Z,60.8
2022-10-02T10:37:37.010Z,60.93
2022-10-02T10:38:41.216Z,60.97
2022-10-02T10:39:45.482Z,61.01
2022-10-02T10:40:49.788Z,61.14
2022-10-02T10:41:54.019Z,61.1
2022-10-02T10:43:12.431Z,60.94
2022-10-02T10:44:18.482Z,61.07
2022-10-02T10:45:22.962Z,60.97
2022-10-02T10:46:27.255Z,60.88
2022-10-02T10:47:31.483Z,60.8
2022-10-02T10:48:35.740Z,60.69
2022-10-02T10:49:39.935Z,60.63
2022-10-02T10:50:44.141Z,60.67
2022-10-02T10:51:48.391Z,60.78
2022-10-02T10:52:52.599Z,60.84
2022-10-02T10:54:03.261Z,60.84
2022-10-02T10:55:07.526Z,60.75
2022-10-02T10:56:11.731Z,60.76
2022-10-02T10:57:15.963Z,60.89
2022-10-02T10:58:20.189Z,60.82
2022-10-02T10:59:27.452Z,60.77
2022-10-02T11:00:31.719Z,60.81
2022-10-02T11:01:37.277Z,60.71
2022-10-02T11:02:41.988Z,60.66
2022-10-02T11:03:46.244Z,60.71
2022-10-02T11:04:50.453Z,60.7
2022-10-02T11:05:54.698Z,60.67
2022-10-02T11:06:58.927Z,60.63
2022-10-02T11:08:03.143Z,60.62
2022-10-02T11:09:07.432Z,60.65
2022-10-02T11:10:11.705Z,60.65
2022-10-02T11:11:15.949Z,60.58
2022-10-02T11:12:20.177Z,60.72
2022-10-02T11:13:24.517Z,60.51
2022-10-02T11:14:28.748Z,60.63
2022-10-02T11:15:32.952Z,60.49
2022-10-02T11:16:37.541Z,60.52
2022-10-02T11:17:41.803Z,60.61
2022-10-02T11:18:46.024Z,60.53
2022-10-02T11:19:50.278Z,60.6
2022-10-02T11:20:54.483Z,60.62
2022-10-02T11:21:58.760Z,60.6
2022-10-02T11:23:02.987Z,60.52
2022-10-02T11:24:07.184Z,60.5
2022-10-02T11:25:15.113Z,60.59
2022-10-02T11:26:19.322Z,60.66
2022-10-02T11:27:23.562Z,60.59
2022-10-02T11:28:27.894Z,60.54
2022-10-02T11:29:32.172Z,60.52
2022-10-02T11:30:42.884Z,60.4
2022-10-02T11:31:47.310Z,60.57
2022-10-02T11:32:51.551Z,60.53
2022-10-02T11:33:55.834Z,60.63
2022-10-02T11:35:00.031Z,60.55
2022-10-02T11:36:04.252Z,60.68
2022-10-02T11:37:08.466Z,60.54
2022-10-02T11:38:12.674Z,60.61
2022-10-02T11:39:16.908Z,60.57
2022-10-02T11:40:21.137Z,60.49
2022-10-02T11:41:25.348Z,60.59
2022-10-02T11:42:29.588Z,60.49
2022-10-02T11:43:33.846Z,60.53
2022-10-02T11:44:38.074Z,60.48
2022-10-02T11:45:42.519Z,60.37
2022-10-02T11:46:46.724Z,60.67
2022-10-02T11:47:50.940Z,60.62
2022-10-02T11:48:55.158Z,60.47
2022-10-02T11:49:59.406Z,60.4
2022-10-02T11:51:03.620Z,60.35
2022-10-02T11:52:07.854Z,60.31
2022-10-02T11:53:12.058Z,60.31
2022-10-02T11:54:16.258Z,60.34
2022-10-02T11:55:20.515Z,60.28
2022-10-02T11:56:24.839Z,60.28
2022-10-02T11:57:29.048Z,60.37
2022-10-02T11:58:33.272Z,60.33
2022-10-02T11:59:37.473Z,60.43
2022-10-02T12:00:41.709Z,60.36
2022-10-02T12:01:45.897Z,60.36
2022-10-02T12:02:50.463Z,60.3
2022-10-02T12:03:54.733Z,60.3
2022-10-02T12:04:58.977Z,60.3
2022-10-02T12:06:03.199Z,60.35
2022-10-02T12:07:07.507Z,60.33
2022-10-02T12:08:11.709Z,60.4
2022-10-02T12:09:15.953Z,60.45
2022-10-02T12:10:20.161Z,60.34
2022-10-02T12:11:24.354Z,60.45
2022-10-02T12:12:29.981Z,60.35
2022-10-02T12:13:34.195Z,60.48
2022-10-02T12:14:38.422Z,60.36
2022-10-02T12:15:42.683Z,60.31
2022-10-02T12:16:47.126Z,60.37
2022-10-02T12:17:51.372Z,60.35
2022-10-02T12:18:55.572Z,60.32
2022-10-02T12:19:59.795Z,60.15
2022-10-02T12:21:03.982Z,60.15
2022-10-02T12:22:08.209Z,60.12
2022-10-02T12:23:12.431Z,60.04
2022-10-02T12:24:16.685Z,59.96
2022-10-02T12:25:20.940Z,60.01
2022-10-02T12:26:25.146Z,60.03
2022-10-02T12:27:29.348Z,60
2022-10-02T12:28:33.894Z,60.01
2022-10-02T12:29:38.170Z,60.08
2022-10-02T12:30:45.415Z,60.01
2022-10-02T12:31:49.806Z,59.9
2022-10-02T12:32:54.107Z,59.99
2022-10-02T12:33:58.869Z,60.05
2022-10-02T12:35:03.060Z,60.04
2022-10-02T12:36:07.294Z,60.02
2022-10-02T12:37:11.542Z,60.02
2022-10-02T12:38:16.788Z,59.93
2022-10-02T12:39:24.055Z,60
2022-10-02T12:40:28.277Z,59.94
2022-10-02T12:41:32.489Z,59.93
2022-10-02T12:42:36.715Z,59.89
2022-10-02T12:43:43.435Z,59.84
2022-10-02T12:44:47.681Z,59.82
2022-10-02T12:45:52.130Z,59.84
2022-10-02T12:46:56.366Z,59.81
2022-10-02T12:48:00.589Z,59.76
2022-10-02T12:49:04.814Z,59.88
2022-10-02T12:50:09.180Z,59.87
2022-10-02T12:51:13.410Z,59.81
2022-10-02T12:52:20.633Z,59.89
2022-10-02T12:53:24.857Z,59.93
2022-10-02T12:54:29.072Z,59.99
2022-10-02T12:55:33.303Z,60.03
2022-10-02T12:56:37.509Z,59.95
2022-10-02T12:57:41.699Z,59.83
2022-10-02T12:58:45.941Z,59.88
2022-10-02T12:59:50.155Z,59.9
2022-10-02T13:00:54.636Z,59.8
2022-10-02T13:01:59.233Z,59.8
2022-10-02T13:03:04.132Z,59.82
2022-10-02T13:04:08.381Z,59.85
2022-10-02T13:05:12.605Z,59.79
2022-10-02T13:06:16.866Z,59.7
2022-10-02T13:07:21.094Z,59.75
2022-10-02T13:08:25.334Z,59.65
2022-10-02T13:09:32.026Z,59.7
2022-10-02T13:10:36.253Z,59.73
2022-10-02T13:11:41.589Z,59.69
2022-10-02T13:12:45.805Z,59.65
2022-10-02T13:13:50.006Z,59.63
2022-10-02T13:14:54.262Z,59.58
2022-10-02T13:15:58.491Z,59.62
2022-10-02T13:17:09.646Z,59.72
2022-10-02T13:18:14.188Z,59.7
2022-10-02T13:19:18.427Z,59.78
2022-10-02T13:20:22.650Z,59.82
2022-10-02T13:21:26.906Z,59.82
2022-10-02T13:22:31.111Z,59.87
2022-10-02T13:23:41.651Z,59.89
2022-10-02T13:24:46.072Z,59.84
2022-10-02T13:25:50.345Z,59.87
2022-10-02T13:26:54.576Z,59.87
2022-10-02T13:27:58.906Z,59.88
2022-10-02T13:29:03.131Z,59.86
2022-10-02T13:30:07.494Z,59.86
2022-10-02T13:31:11.899Z,59.88
2022-10-02T13:32:16.189Z,59.86
2022-10-02T13:33:20.386Z,59.84
2022-10-02T13:34:24.590Z,59.79
2022-10-02T13:35:28.862Z,59.83
2022-10-02T13:36:36.184Z,59.82
2022-10-02T13:37:40.409Z,59.81
2022-10-02T13:38:44.635Z,59.83
2022-10-02T13:39:48.840Z,59.83
2022-10-02T13:40:53.098Z,59.79
2022-10-02T13:41:57.306Z,59.79
2022-10-02T13:43:01.558Z,59.81
2022-10-02T13:44:05.771Z,59.81
2022-10-02T13:45:10.038Z,59.84
2022-10-02T13:46:14.473Z,59.74
2022-10-02T13:47:18.680Z,59.75
2022-10-02T13:48:22.939Z,59.77
2022-10-02T13:49:27.160Z,59.76
2022-10-02T13:50:31.405Z,59.79
2022-10-02T13:51:36.749Z,59.8
2022-10-02T13:52:41.067Z,59.74
2022-10-02T13:53:45.265Z,59.69
2022-10-02T13:54:49.499Z,59.73
2022-10-02T13:55:53.738Z,59.74
2022-10-02T13:56:57.965Z,59.75
2022-10-02T13:58:02.190Z,59.62
2022-10-02T13:59:06.372Z,59.68
2022-10-02T14:00:10.615Z,59.71
2022-10-02T14:01:15.142Z,59.67
2022-10-02T14:02:19.398Z,59.68
2022-10-02T14:03:23.837Z,59.7
2022-10-02T14:04:28.072Z,59.7